sensor_id;sensor_type;location;lat;lon;timestamp;pressure;altitude;pressure_sealevel;temperature;humidity
44988;BME280;35735;52.226;21.254;2024-01-06T00:03:05;99823.81;;;-2.27;100.00
44988;BME280;35735;52.226;21.254;2024-01-06T00:08:06;99834.94;;;-2.34;100.00
44988;BME280;35735;52.226;21.254;2024-01-06T00:13:06;99827.75;;;-2.38;100.00
44988;BME280;35735;52.226;21.254;2024-01-06T00:18:07;99831.16;;;-2.41;100.00
44988;BME280;35735;52.226;21.254;2024-01-06T00:23:08;99843.59;;;-2.38;100.00
44988;BME280;35735;52.226;21.254;2024-01-06T00:28:08;99841.66;;;-2.43;100.00
44988;BME280;35735;52.226;21.254;2024-01-06T00:33:09;99832.91;;;-2.42;100.00
44988;BME280;35735;52.226;21.254;2024-01-06T00:38:09;99840.09;;;-2.37;100.00
44988;BME280;35735;52.226;21.254;2024-01-06T00:43:10;99849.78;;;-2.38;100.00
44988;BME280;35735;52.226;21.254;2024-01-06T00:48:10;99853.91;;;-2.45;100.00
44988;BME280;35735;52.226;21.254;2024-01-06T00:53:11;99856.41;;;-2.48;100.00
44988;BME280;35735;52.226;21.254;2024-01-06T00:58:12;99845.03;;;-2.47;100.00
44988;BME280;35735;52.226;21.254;2024-01-06T01:03:13;99838.06;;;-2.45;100.00
44988;BME280;35735;52.226;21.254;2024-01-06T01:08:13;99824.63;;;-2.49;100.00
44988;BME280;35735;52.226;21.254;2024-01-06T01:13:14;99824.31;;;-2.57;100.00
44988;BME280;35735;52.226;21.254;2024-01-06T01:18:14;99829.47;;;-2.60;100.00
44988;BME280;35735;52.226;21.254;2024-01-06T01:23:15;99807.09;;;-2.68;100.00
44988;BME280;35735;52.226;21.254;2024-01-06T01:28:16;99802.47;;;-2.74;100.00
44988;BME280;35735;52.226;21.254;2024-01-06T01:33:16;99801.41;;;-2.77;100.00
44988;BME280;35735;52.226;21.254;2024-01-06T01:38:17;99806.62;;;-2.79;100.00
44988;BME280;35735;52.226;21.254;2024-01-06T01:43:18;99815.34;;;-2.82;100.00
44988;BME280;35735;52.226;21.254;2024-01-06T01:48:20;99814.53;;;-2.79;100.00
44988;BME280;35735;52.226;21.254;2024-01-06T01:53:21;99811.09;;;-2.78;100.00
44988;BME280;35735;52.226;21.254;2024-01-06T01:58:22;99822.69;;;-2.74;100.00
44988;BME280;35735;52.226;21.254;2024-01-06T02:03:24;99826.41;;;-2.69;100.00
44988;BME280;35735;52.226;21.254;2024-01-06T02:08:24;99827.97;;;-2.74;100.00
44988;BME280;35735;52.226;21.254;2024-01-06T02:13:32;99808.44;;;-2.78;100.00
44988;BME280;35735;52.226;21.254;2024-01-06T02:18:33;99796.25;;;-2.74;100.00
44988;BME280;35735;52.226;21.254;2024-01-06T02:23:35;99800.12;;;-2.66;100.00
44988;BME280;35735;52.226;21.254;2024-01-06T02:28:36;99798.47;;;-2.64;100.00
44988;BME280;35735;52.226;21.254;2024-01-06T02:33:37;99788.81;;;-2.64;100.00
44988;BME280;35735;52.226;21.254;2024-01-06T02:38:37;99793.31;;;-2.61;100.00
44988;BME280;35735;52.226;21.254;2024-01-06T02:43:38;99793.16;;;-2.64;100.00
44988;BME280;35735;52.226;21.254;2024-01-06T02:48:38;99798.59;;;-2.61;100.00
44988;BME280;35735;52.226;21.254;2024-01-06T02:53:39;99784.41;;;-2.63;100.00
44988;BME280;35735;52.226;21.254;2024-01-06T02:58:39;99777.31;;;-2.64;100.00
44988;BME280;35735;52.226;21.254;2024-01-06T03:03:40;99788.97;;;-2.59;100.00
44988;BME280;35735;52.226;21.254;2024-01-06T03:08:40;99779.41;;;-2.57;100.00
44988;BME280;35735;52.226;21.254;2024-01-06T03:13:41;99782.88;;;-2.58;100.00
44988;BME280;35735;52.226;21.254;2024-01-06T03:18:42;99777.72;;;-2.55;100.00
44988;BME280;35735;52.226;21.254;2024-01-06T03:23:42;99783.75;;;-2.57;100.00
44988;BME280;35735;52.226;21.254;2024-01-06T03:28:43;99783.12;;;-2.52;100.00
44988;BME280;35735;52.226;21.254;2024-01-06T03:33:44;99781.66;;;-2.45;100.00
44988;BME280;35735;52.226;21.254;2024-01-06T03:38:44;99782.56;;;-2.45;100.00
44988;BME280;35735;52.226;21.254;2024-01-06T03:43:45;99782.19;;;-2.54;100.00
44988;BME280;35735;52.226;21.254;2024-01-06T03:48:45;99772.44;;;-2.55;100.00
44988;BME280;35735;52.226;21.254;2024-01-06T03:53:46;99771.34;;;-2.60;100.00
44988;BME280;35735;52.226;21.254;2024-01-06T03:58:46;99776.56;;;-2.62;100.00
44988;BME280;35735;52.226;21.254;2024-01-06T04:03:47;99776.75;;;-2.57;100.00
44988;BME280;35735;52.226;21.254;2024-01-06T04:08:47;99768.69;;;-2.60;100.00
44988;BME280;35735;52.226;21.254;2024-01-06T04:13:48;99771.97;;;-2.66;100.00
44988;BME280;35735;52.226;21.254;2024-01-06T04:18:49;99778.31;;;-2.62;100.00
44988;BME280;35735;52.226;21.254;2024-01-06T04:23:49;99792.69;;;-2.55;100.00
44988;BME280;35735;52.226;21.254;2024-01-06T04:28:50;99784.03;;;-2.51;100.00
44988;BME280;35735;52.226;21.254;2024-01-06T04:33:50;99786.88;;;-2.47;100.00
44988;BME280;35735;52.226;21.254;2024-01-06T04:38:51;99784.84;;;-2.52;100.00
44988;BME280;35735;52.226;21.254;2024-01-06T04:43:51;99788.22;;;-2.56;100.00
44988;BME280;35735;52.226;21.254;2024-01-06T04:48:52;99794.47;;;-2.54;100.00
44988;BME280;35735;52.226;21.254;2024-01-06T04:53:52;99801.56;;;-2.53;100.00
44988;BME280;35735;52.226;21.254;2024-01-06T04:58:53;99795.41;;;-2.54;100.00
44988;BME280;35735;52.226;21.254;2024-01-06T05:03:53;99809.56;;;-2.52;100.00
44988;BME280;35735;52.226;21.254;2024-01-06T05:08:54;99819.19;;;-2.54;100.00
44988;BME280;35735;52.226;21.254;2024-01-06T05:13:54;99814.06;;;-2.49;100.00
44988;BME280;35735;52.226;21.254;2024-01-06T05:18:55;99813.31;;;-2.47;100.00
44988;BME280;35735;52.226;21.254;2024-01-06T05:23:56;99804.34;;;-2.50;100.00
44988;BME280;35735;52.226;21.254;2024-01-06T05:28:56;99796.91;;;-2.59;100.00
44988;BME280;35735;52.226;21.254;2024-01-06T05:33:57;99802.84;;;-2.65;100.00
44988;BME280;35735;52.226;21.254;2024-01-06T05:38:57;99817.94;;;-2.62;100.00
44988;BME280;35735;52.226;21.254;2024-01-06T05:43:58;99812.91;;;-2.56;100.00
44988;BME280;35735;52.226;21.254;2024-01-06T05:48:58;99834.03;;;-2.56;100.00
44988;BME280;35735;52.226;21.254;2024-01-06T05:53:59;99812.75;;;-2.59;100.00
44988;BME280;35735;52.226;21.254;2024-01-06T05:59:00;99818.84;;;-2.62;100.00
44988;BME280;35735;52.226;21.254;2024-01-06T06:04:00;99830.28;;;-2.61;100.00
44988;BME280;35735;52.226;21.254;2024-01-06T06:09:01;99818.97;;;-2.58;100.00
44988;BME280;35735;52.226;21.254;2024-01-06T06:14:01;99819.03;;;-2.57;100.00
44988;BME280;35735;52.226;21.254;2024-01-06T06:19:02;99833.16;;;-2.56;100.00
44988;BME280;35735;52.226;21.254;2024-01-06T06:24:03;99834.19;;;-2.53;100.00
44988;BME280;35735;52.226;21.254;2024-01-06T06:29:04;99837.12;;;-2.66;100.00
44988;BME280;35735;52.226;21.254;2024-01-06T06:34:04;99856.47;;;-2.67;100.00
44988;BME280;35735;52.226;21.254;2024-01-06T06:39:05;99854.78;;;-2.65;100.00
44988;BME280;35735;52.226;21.254;2024-01-06T06:44:05;99867.16;;;-2.64;100.00
44988;BME280;35735;52.226;21.254;2024-01-06T06:49:06;99866.25;;;-2.65;100.00
44988;BME280;35735;52.226;21.254;2024-01-06T06:54:06;99874.03;;;-2.68;100.00
44988;BME280;35735;52.226;21.254;2024-01-06T06:59:07;99869.88;;;-2.63;100.00
44988;BME280;35735;52.226;21.254;2024-01-06T07:04:07;99880.50;;;-2.61;100.00
44988;BME280;35735;52.226;21.254;2024-01-06T07:09:08;99892.03;;;-2.59;100.00
44988;BME280;35735;52.226;21.254;2024-01-06T07:14:08;99900.97;;;-2.57;100.00
44988;BME280;35735;52.226;21.254;2024-01-06T07:19:09;99905.25;;;-2.59;100.00
44988;BME280;35735;52.226;21.254;2024-01-06T07:24:09;99893.72;;;-2.61;100.00
44988;BME280;35735;52.226;21.254;2024-01-06T07:29:10;99897.31;;;-2.59;100.00
44988;BME280;35735;52.226;21.254;2024-01-06T07:34:11;99892.81;;;-2.62;100.00
44988;BME280;35735;52.226;21.254;2024-01-06T07:39:11;99893.84;;;-2.58;100.00
44988;BME280;35735;52.226;21.254;2024-01-06T07:44:12;99888.28;;;-2.64;100.00
44988;BME280;35735;52.226;21.254;2024-01-06T07:49:13;99904.03;;;-2.67;100.00
44988;BME280;35735;52.226;21.254;2024-01-06T07:54:13;99903.88;;;-2.70;100.00
44988;BME280;35735;52.226;21.254;2024-01-06T07:59:14;99908.19;;;-2.72;100.00
44988;BME280;35735;52.226;21.254;2024-01-06T08:04:14;99913.47;;;-2.72;100.00
44988;BME280;35735;52.226;21.254;2024-01-06T08:09:15;99925.28;;;-2.64;100.00
44988;BME280;35735;52.226;21.254;2024-01-06T08:14:15;99935.50;;;-2.52;100.00
44988;BME280;35735;52.226;21.254;2024-01-06T08:19:16;99932.66;;;-2.57;100.00
44988;BME280;35735;52.226;21.254;2024-01-06T08:24:16;99938.13;;;-2.52;100.00
44988;BME280;35735;52.226;21.254;2024-01-06T08:29:17;99934.88;;;-2.47;100.00
44988;BME280;35735;52.226;21.254;2024-01-06T08:34:18;99937.53;;;-2.47;100.00
44988;BME280;35735;52.226;21.254;2024-01-06T08:39:18;99947.81;;;-2.53;100.00
44988;BME280;35735;52.226;21.254;2024-01-06T08:44:19;99954.06;;;-2.51;100.00
44988;BME280;35735;52.226;21.254;2024-01-06T08:49:19;99960.19;;;-2.52;100.00
44988;BME280;35735;52.226;21.254;2024-01-06T08:54:20;99970.19;;;-2.45;100.00
44988;BME280;35735;52.226;21.254;2024-01-06T08:59:20;99964.03;;;-2.45;100.00
44988;BME280;35735;52.226;21.254;2024-01-06T09:04:21;99967.50;;;-2.46;100.00
44988;BME280;35735;52.226;21.254;2024-01-06T09:09:22;99977.16;;;-2.47;100.00
44988;BME280;35735;52.226;21.254;2024-01-06T09:14:22;99971.53;;;-2.54;100.00
44988;BME280;35735;52.226;21.254;2024-01-06T09:19:23;99985.50;;;-2.57;100.00
44988;BME280;35735;52.226;21.254;2024-01-06T09:24:23;99992.44;;;-2.59;100.00
44988;BME280;35735;52.226;21.254;2024-01-06T09:29:24;99991.91;;;-2.52;100.00
44988;BME280;35735;52.226;21.254;2024-01-06T09:34:24;99993.63;;;-2.52;100.00
44988;BME280;35735;52.226;21.254;2024-01-06T09:39:25;100001.50;;;-2.54;100.00
44988;BME280;35735;52.226;21.254;2024-01-06T09:44:25;100001.50;;;-2.54;100.00
44988;BME280;35735;52.226;21.254;2024-01-06T09:49:28;99990.31;;;-2.48;100.00
44988;BME280;35735;52.226;21.254;2024-01-06T09:54:30;99998.97;;;-2.51;100.00
44988;BME280;35735;52.226;21.254;2024-01-06T09:59:33;99996.28;;;-2.52;100.00
44988;BME280;35735;52.226;21.254;2024-01-06T10:04:33;99993.44;;;-2.57;100.00
44988;BME280;35735;52.226;21.254;2024-01-06T10:09:34;99995.78;;;-2.63;100.00
44988;BME280;35735;52.226;21.254;2024-01-06T10:14:35;99988.16;;;-2.57;100.00
44988;BME280;35735;52.226;21.254;2024-01-06T10:19:36;100000.72;;;-2.51;100.00
44988;BME280;35735;52.226;21.254;2024-01-06T10:24:37;99994.69;;;-2.49;100.00
44988;BME280;35735;52.226;21.254;2024-01-06T10:29:38;99999.28;;;-2.45;100.00
44988;BME280;35735;52.226;21.254;2024-01-06T10:34:38;99995.81;;;-2.44;100.00
44988;BME280;35735;52.226;21.254;2024-01-06T10:39:39;100007.34;;;-2.42;100.00
44988;BME280;35735;52.226;21.254;2024-01-06T10:44:40;99999.34;;;-2.43;100.00
44988;BME280;35735;52.226;21.254;2024-01-06T10:49:43;100001.03;;;-2.45;100.00
44988;BME280;35735;52.226;21.254;2024-01-06T10:54:44;100004.50;;;-2.46;100.00
44988;BME280;35735;52.226;21.254;2024-01-06T10:59:48;99992.59;;;-2.36;100.00
44988;BME280;35735;52.226;21.254;2024-01-06T11:04:49;99998.84;;;-2.34;100.00
44988;BME280;35735;52.226;21.254;2024-01-06T11:09:57;99995.53;;;-2.30;100.00
44988;BME280;35735;52.226;21.254;2024-01-06T11:15:03;99992.03;;;-2.29;100.00
44988;BME280;35735;52.226;21.254;2024-01-06T11:20:05;99990.16;;;-2.32;100.00
44988;BME280;35735;52.226;21.254;2024-01-06T11:25:08;99988.56;;;-2.28;100.00
44988;BME280;35735;52.226;21.254;2024-01-06T11:30:20;99996.78;;;-2.22;100.00
44988;BME280;35735;52.226;21.254;2024-01-06T11:35:22;99992.03;;;-2.29;100.00
44988;BME280;35735;52.226;21.254;2024-01-06T11:45:24;99999.94;;;-2.29;100.00
44988;BME280;35735;52.226;21.254;2024-01-06T11:50:26;100012.50;;;-2.25;100.00
44988;BME280;35735;52.226;21.254;2024-01-06T11:55:27;100009.72;;;-2.28;100.00
44988;BME280;35735;52.226;21.254;2024-01-06T12:00:28;100013.16;;;-2.29;100.00
44988;BME280;35735;52.226;21.254;2024-01-06T12:05:29;100011.38;;;-2.30;100.00
44988;BME280;35735;52.226;21.254;2024-01-06T12:10:29;100008.66;;;-2.32;100.00
44988;BME280;35735;52.226;21.254;2024-01-06T12:15:31;100001.50;;;-2.34;100.00
44988;BME280;35735;52.226;21.254;2024-01-06T12:20:32;100013.75;;;-2.36;100.00
44988;BME280;35735;52.226;21.254;2024-01-06T12:25:34;100020.97;;;-2.32;100.00
44988;BME280;35735;52.226;21.254;2024-01-06T12:30:35;100016.81;;;-2.27;100.00
44988;BME280;35735;52.226;21.254;2024-01-06T12:35:36;100016.09;;;-2.23;100.00
44988;BME280;35735;52.226;21.254;2024-01-06T12:40:37;100020.56;;;-2.22;100.00
44988;BME280;35735;52.226;21.254;2024-01-06T12:45:37;100042.53;;;-2.23;100.00
44988;BME280;35735;52.226;21.254;2024-01-06T12:50:38;100034.75;;;-2.20;100.00
44988;BME280;35735;52.226;21.254;2024-01-06T12:55:38;100032.03;;;-2.21;100.00
44988;BME280;35735;52.226;21.254;2024-01-06T13:00:39;100045.19;;;-2.23;100.00
44988;BME280;35735;52.226;21.254;2024-01-06T13:05:40;100048.66;;;-2.24;100.00
44988;BME280;35735;52.226;21.254;2024-01-06T13:10:40;100055.62;;;-2.26;100.00
44988;BME280;35735;52.226;21.254;2024-01-06T13:15:41;100053.81;;;-2.27;100.00
44988;BME280;35735;52.226;21.254;2024-01-06T13:20:42;100064.50;;;-2.24;100.00
44988;BME280;35735;52.226;21.254;2024-01-06T13:25:42;100070.87;;;-2.20;100.00
44988;BME280;35735;52.226;21.254;2024-01-06T13:30:43;100078.16;;;-2.15;100.00
44988;BME280;35735;52.226;21.254;2024-01-06T13:35:43;100085.31;;;-2.12;100.00
44988;BME280;35735;52.226;21.254;2024-01-06T13:40:44;100085.22;;;-2.15;100.00
44988;BME280;35735;52.226;21.254;2024-01-06T13:45:44;100089.56;;;-2.16;100.00
44988;BME280;35735;52.226;21.254;2024-01-06T13:50:45;100094.78;;;-2.17;100.00
44988;BME280;35735;52.226;21.254;2024-01-06T13:55:46;100098.13;;;-2.21;100.00
44988;BME280;35735;52.226;21.254;2024-01-06T14:00:46;100101.75;;;-2.19;100.00
44988;BME280;35735;52.226;21.254;2024-01-06T14:05:47;100106.81;;;-2.24;100.00
44988;BME280;35735;52.226;21.254;2024-01-06T14:10:48;100112.00;;;-2.27;100.00
44988;BME280;35735;52.226;21.254;2024-01-06T14:15:48;100113.72;;;-2.28;100.00
44988;BME280;35735;52.226;21.254;2024-01-06T14:20:49;100122.69;;;-2.24;100.00
44988;BME280;35735;52.226;21.254;2024-01-06T14:25:49;100138.53;;;-2.24;100.00
44988;BME280;35735;52.226;21.254;2024-01-06T14:30:50;100131.47;;;-2.25;100.00
44988;BME280;35735;52.226;21.254;2024-01-06T14:35:50;100125.25;;;-2.26;100.00
44988;BME280;35735;52.226;21.254;2024-01-06T14:40:51;100132.06;;;-2.31;100.00
44988;BME280;35735;52.226;21.254;2024-01-06T14:45:51;100137.44;;;-2.29;100.00
44988;BME280;35735;52.226;21.254;2024-01-06T14:50:52;100138.44;;;-2.27;100.00
44988;BME280;35735;52.226;21.254;2024-01-06T14:55:53;100142.72;;;-2.29;100.00
44988;BME280;35735;52.226;21.254;2024-01-06T15:00:53;100150.78;;;-2.26;100.00
44988;BME280;35735;52.226;21.254;2024-01-06T15:05:54;100148.09;;;-2.28;100.00
44988;BME280;35735;52.226;21.254;2024-01-06T15:10:55;100160.31;;;-2.30;100.00
44988;BME280;35735;52.226;21.254;2024-01-06T15:15:56;100157.47;;;-2.34;100.00
44988;BME280;35735;52.226;21.254;2024-01-06T15:20:57;100170.00;;;-2.30;100.00
44988;BME280;35735;52.226;21.254;2024-01-06T15:25:57;100180.59;;;-2.30;100.00
44988;BME280;35735;52.226;21.254;2024-01-06T15:30:58;100184.81;;;-2.34;100.00
44988;BME280;35735;52.226;21.254;2024-01-06T15:35:58;100187.47;;;-2.34;100.00
44988;BME280;35735;52.226;21.254;2024-01-06T15:40:59;100192.69;;;-2.35;100.00
44988;BME280;35735;52.226;21.254;2024-01-06T15:45:59;100195.84;;;-2.43;100.00
44988;BME280;35735;52.226;21.254;2024-01-06T15:51:00;100204.81;;;-2.39;100.00
44988;BME280;35735;52.226;21.254;2024-01-06T15:56:00;100216.00;;;-2.45;100.00
44988;BME280;35735;52.226;21.254;2024-01-06T16:01:01;100206.63;;;-2.56;100.00
44988;BME280;35735;52.226;21.254;2024-01-06T16:06:02;100214.56;;;-2.56;100.00
44988;BME280;35735;52.226;21.254;2024-01-06T16:11:02;100216.09;;;-2.61;100.00
44988;BME280;35735;52.226;21.254;2024-01-06T16:16:03;100222.12;;;-2.64;100.00
44988;BME280;35735;52.226;21.254;2024-01-06T16:21:04;100226.50;;;-2.64;100.00
44988;BME280;35735;52.226;21.254;2024-01-06T16:26:05;100227.44;;;-2.64;100.00
44988;BME280;35735;52.226;21.254;2024-01-06T16:31:05;100231.66;;;-2.67;100.00
44988;BME280;35735;52.226;21.254;2024-01-06T16:36:06;100243.56;;;-2.75;100.00
44988;BME280;35735;52.226;21.254;2024-01-06T16:41:07;100242.34;;;-2.82;100.00
44988;BME280;35735;52.226;21.254;2024-01-06T16:46:07;100239.03;;;-2.78;100.00
44988;BME280;35735;52.226;21.254;2024-01-06T16:51:08;100235.50;;;-2.78;100.00
44988;BME280;35735;52.226;21.254;2024-01-06T16:56:09;100252.00;;;-2.83;100.00
44988;BME280;35735;52.226;21.254;2024-01-06T17:01:09;100271.34;;;-2.84;100.00
44988;BME280;35735;52.226;21.254;2024-01-06T17:06:10;100279.19;;;-2.85;100.00
44988;BME280;35735;52.226;21.254;2024-01-06T17:11:10;100280.00;;;-2.86;100.00
44988;BME280;35735;52.226;21.254;2024-01-06T17:16:11;100289.50;;;-2.90;100.00
44988;BME280;35735;52.226;21.254;2024-01-06T17:21:11;100305.03;;;-2.96;100.00
44988;BME280;35735;52.226;21.254;2024-01-06T17:26:12;100304.38;;;-2.92;100.00
44988;BME280;35735;52.226;21.254;2024-01-06T17:31:13;100303.44;;;-2.92;100.00
44988;BME280;35735;52.226;21.254;2024-01-06T17:36:13;100302.47;;;-2.94;100.00
44988;BME280;35735;52.226;21.254;2024-01-06T17:41:14;100310.63;;;-2.90;100.00
44988;BME280;35735;52.226;21.254;2024-01-06T17:46:14;100308.88;;;-2.89;100.00
44988;BME280;35735;52.226;21.254;2024-01-06T17:51:15;100318.37;;;-2.93;100.00
44988;BME280;35735;52.226;21.254;2024-01-06T17:56:15;100318.37;;;-2.93;100.00
44988;BME280;35735;52.226;21.254;2024-01-06T18:01:16;100320.88;;;-2.96;100.00
44988;BME280;35735;52.226;21.254;2024-01-06T18:06:17;100313.78;;;-2.97;100.00
44988;BME280;35735;52.226;21.254;2024-01-06T18:11:17;100317.41;;;-2.95;100.00
44988;BME280;35735;52.226;21.254;2024-01-06T18:16:18;100317.16;;;-3.00;100.00
44988;BME280;35735;52.226;21.254;2024-01-06T18:21:18;100315.37;;;-3.01;100.00
44988;BME280;35735;52.226;21.254;2024-01-06T18:26:19;100316.00;;;-3.05;100.00
44988;BME280;35735;52.226;21.254;2024-01-06T18:31:21;100328.87;;;-3.11;100.00
44988;BME280;35735;52.226;21.254;2024-01-06T18:36:22;100332.28;;;-3.13;100.00
44988;BME280;35735;52.226;21.254;2024-01-06T18:41:22;100331.44;;;-3.12;100.00
44988;BME280;35735;52.226;21.254;2024-01-06T18:46:23;100346.56;;;-3.10;100.00
44988;BME280;35735;52.226;21.254;2024-01-06T18:51:23;100342.00;;;-3.12;100.00
44988;BME280;35735;52.226;21.254;2024-01-06T18:56:24;100338.13;;;-3.19;100.00
44988;BME280;35735;52.226;21.254;2024-01-06T19:01:25;100343.19;;;-3.24;100.00
44988;BME280;35735;52.226;21.254;2024-01-06T19:06:25;100351.31;;;-3.19;100.00
44988;BME280;35735;52.226;21.254;2024-01-06T19:11:26;100363.81;;;-3.17;100.00
44988;BME280;35735;52.226;21.254;2024-01-06T19:16:26;100356.22;;;-3.27;100.00
44988;BME280;35735;52.226;21.254;2024-01-06T19:21:27;100364.84;;;-3.29;100.00
44988;BME280;35735;52.226;21.254;2024-01-06T19:26:27;100375.41;;;-3.29;100.00
44988;BME280;35735;52.226;21.254;2024-01-06T19:31:28;100368.16;;;-3.33;100.00
44988;BME280;35735;52.226;21.254;2024-01-06T19:36:29;100376.59;;;-3.41;100.00
44988;BME280;35735;52.226;21.254;2024-01-06T19:41:29;100377.13;;;-3.46;100.00
44988;BME280;35735;52.226;21.254;2024-01-06T19:46:30;100372.44;;;-3.52;100.00
44988;BME280;35735;52.226;21.254;2024-01-06T19:51:30;100384.47;;;-3.57;100.00
44988;BME280;35735;52.226;21.254;2024-01-06T19:56:31;100389.97;;;-3.69;100.00
44988;BME280;35735;52.226;21.254;2024-01-06T20:01:33;100386.97;;;-3.75;100.00
44988;BME280;35735;52.226;21.254;2024-01-06T20:06:34;100382.50;;;-3.76;100.00
44988;BME280;35735;52.226;21.254;2024-01-06T20:11:35;100384.16;;;-3.78;100.00
44988;BME280;35735;52.226;21.254;2024-01-06T20:16:35;100383.81;;;-3.84;100.00
44988;BME280;35735;52.226;21.254;2024-01-06T20:21:36;100392.38;;;-3.88;100.00
44988;BME280;35735;52.226;21.254;2024-01-06T20:26:36;100387.72;;;-3.93;100.00
44988;BME280;35735;52.226;21.254;2024-01-06T20:31:37;100389.19;;;-3.98;100.00
44988;BME280;35735;52.226;21.254;2024-01-06T20:36:37;100387.41;;;-3.99;100.00
44988;BME280;35735;52.226;21.254;2024-01-06T20:41:38;100389.09;;;-3.99;100.00
44988;BME280;35735;52.226;21.254;2024-01-06T20:46:39;100393.47;;;-4.00;100.00
44988;BME280;35735;52.226;21.254;2024-01-06T20:51:39;100383.69;;;-4.02;100.00
44988;BME280;35735;52.226;21.254;2024-01-06T20:56:40;100405.31;;;-4.08;100.00
44988;BME280;35735;52.226;21.254;2024-01-06T21:01:42;100398.50;;;-4.19;100.00
44988;BME280;35735;52.226;21.254;2024-01-06T21:06:43;100399.06;;;-4.25;100.00
44988;BME280;35735;52.226;21.254;2024-01-06T21:11:43;100391.91;;;-4.28;100.00
44988;BME280;35735;52.226;21.254;2024-01-06T21:16:44;100394.97;;;-4.35;100.00
44988;BME280;35735;52.226;21.254;2024-01-06T21:21:44;100406.44;;;-4.34;100.00
44988;BME280;35735;52.226;21.254;2024-01-06T21:26:45;100400.88;;;-4.39;100.00
44988;BME280;35735;52.226;21.254;2024-01-06T21:31:46;100407.63;;;-4.44;100.00
44988;BME280;35735;52.226;21.254;2024-01-06T21:36:46;100399.72;;;-4.44;100.00
44988;BME280;35735;52.226;21.254;2024-01-06T21:41:47;100410.25;;;-4.44;100.00
44988;BME280;35735;52.226;21.254;2024-01-06T21:46:47;100415.22;;;-4.49;100.00
44988;BME280;35735;52.226;21.254;2024-01-06T21:51:50;100409.78;;;-4.52;100.00
44988;BME280;35735;52.226;21.254;2024-01-06T21:56:52;100415.84;;;-4.53;100.00
44988;BME280;35735;52.226;21.254;2024-01-06T22:01:53;100420.03;;;-4.56;100.00
44988;BME280;35735;52.226;21.254;2024-01-06T22:06:53;100417.66;;;-4.67;100.00
44988;BME280;35735;52.226;21.254;2024-01-06T22:11:54;100420.75;;;-4.74;100.00
44988;BME280;35735;52.226;21.254;2024-01-06T22:16:55;100424.00;;;-4.78;100.00
44988;BME280;35735;52.226;21.254;2024-01-06T22:21:55;100424.81;;;-4.79;100.00
44988;BME280;35735;52.226;21.254;2024-01-06T22:26:56;100424.53;;;-4.84;100.00
44988;BME280;35735;52.226;21.254;2024-01-06T22:31:56;100424.97;;;-4.91;100.00
44988;BME280;35735;52.226;21.254;2024-01-06T22:36:57;100426.34;;;-4.97;100.00
44988;BME280;35735;52.226;21.254;2024-01-06T22:41:57;100439.91;;;-5.05;100.00
44988;BME280;35735;52.226;21.254;2024-01-06T22:46:58;100447.13;;;-5.15;100.00
44988;BME280;35735;52.226;21.254;2024-01-06T22:51:58;100446.94;;;-5.18;100.00
44988;BME280;35735;52.226;21.254;2024-01-06T22:56:59;100450.37;;;-5.19;100.00
44988;BME280;35735;52.226;21.254;2024-01-06T23:02:00;100459.22;;;-5.32;100.00
44988;BME280;35735;52.226;21.254;2024-01-06T23:07:00;100462.06;;;-5.29;100.00
44988;BME280;35735;52.226;21.254;2024-01-06T23:12:01;100463.50;;;-5.34;100.00
44988;BME280;35735;52.226;21.254;2024-01-06T23:17:01;100460.03;;;-5.33;100.00
44988;BME280;35735;52.226;21.254;2024-01-06T23:22:02;100457.81;;;-5.41;100.00
44988;BME280;35735;52.226;21.254;2024-01-06T23:27:02;100471.78;;;-5.42;100.00
44988;BME280;35735;52.226;21.254;2024-01-06T23:32:03;100480.59;;;-5.41;100.00
44988;BME280;35735;52.226;21.254;2024-01-06T23:37:04;100470.78;;;-5.44;100.00
44988;BME280;35735;52.226;21.254;2024-01-06T23:42:07;100478.66;;;-5.44;100.00
44988;BME280;35735;52.226;21.254;2024-01-06T23:47:08;100488.78;;;-5.50;100.00
44988;BME280;35735;52.226;21.254;2024-01-06T23:52:09;100482.31;;;-5.55;100.00
44988;BME280;35735;52.226;21.254;2024-01-06T23:57:09;100481.09;;;-5.60;100.00
